This is the latest recevied weather packets stored in our database for station/object DL4YM-13. If no packets are shown the sender has not sent any weather packets the latest 10 day(s).
| Time | Temp. | Humidity | Pressure | Rain* | Wind** | Luminosity | Snow |
|---|---|---|---|---|---|---|---|
| 1777184725 | 5° C | 79% | 1009.6 hPa | - | - | - | - |
| 1777184125 | 5° C | 83% | 1009.4 hPa | - | - | - | - |
| 1777183525 | 5° C | 83% | 1009.4 hPa | - | - | - | - |
| 1777182925 | 3.89° C | 85% | 1009.2 hPa | - | - | - | - |
| 1777182325 | 3.89° C | 85% | 1009.2 hPa | - | - | - | - |
| 1777181725 | 3.33° C | 88% | 1009.3 hPa | - | - | - | - |
| 1777181125 | 3.33° C | 88% | 1009.2 hPa | - | - | - | - |
| 1777180525 | 2.78° C | 90% | 1009 hPa | - | - | - | - |
| 1777179925 | 2.78° C | 90% | 1009 hPa | - | - | - | - |
| 1777179325 | 2.22° C | 91% | 1008.7 hPa | - | - | - | - |
| 1777178725 | 2.22° C | 91% | 1008.7 hPa | - | - | - | - |
| 1777178125 | 2.22° C | 91% | 1008.4 hPa | - | - | - | - |
| 1777177525 | 2.22° C | 91% | 1008.4 hPa | - | - | - | - |
| 1777176925 | 2.22° C | 92% | 1008.4 hPa | - | - | - | - |
| 1777176325 | 2.22° C | 91% | 1008.3 hPa | - | - | - | - |
| 1777175725 | 2.22° C | 91% | 1008.1 hPa | - | - | - | - |
| 1777175125 | 2.22° C | 91% | 1008.1 hPa | - | - | - | - |
| 1777174525 | 2.22° C | 91% | 1008.1 hPa | - | - | - | - |
| 1777173925 | 2.22° C | 91% | 1008.1 hPa | - | - | - | - |
| 1777173325 | 2.78° C | 90% | 1008.1 hPa | - | - | - | - |
| 1777172725 | 2.78° C | 90% | 1008.1 hPa | - | - | - | - |
| 1777172125 | 2.78° C | 90% | 1007.9 hPa | - | - | - | - |
| 1777171525 | 2.78° C | 90% | 1007.9 hPa | - | - | - | - |
| 1777170924 | 2.78° C | 90% | 1007.8 hPa | - | - | - | - |
| 1777170325 | 2.78° C | 90% | 1007.5 hPa | - | - | - | - |
* Rain since midnight (hover to see other rain measurements)
** Current wind speed in m/s (hover to see current wind gust speed)